Time;durP1;ratioP1;P1;durP2;ratioP2;P2;SDS_P1;SDS_P2;PMS_P1;PMS_P2;Temp;Humidity;BMP_temperature;BMP_pressure;BME280_temperature;BME280_humidity;BME280_pressure;Samples;Min_cycle;Max_cycle;Signal;HPM_P1;HPM_P2
2022/05/15 00:02:36;;;;;;;4.70;4.30;;;11.80;99.90;;;12.63;70.18;98201.50;5203244;28;20284;-57
2022/05/15 00:05:09;;;;;;;4.25;3.95;;;11.80;99.90;;;12.52;69.63;98202.59;5203748;28;20279;-58
2022/05/15 00:07:44;;;;;;;5.03;4.63;;;11.70;99.90;;;12.52;70.76;98198.34;5202757;28;20294;-55
2022/05/15 00:10:17;;;;;;;4.22;3.90;;;11.70;99.90;;;12.52;70.11;98203.47;5200556;28;20201;-57
2022/05/15 00:12:50;;;;;;;6.13;4.65;;;11.70;99.90;;;12.44;70.46;98191.91;5205993;28;20209;-54
2022/05/15 00:15:23;;;;;;;4.70;4.32;;;11.60;99.90;;;12.42;71.79;98196.09;5205828;28;20314;-53
2022/05/15 00:17:56;;;;;;;4.75;4.28;;;11.60;99.90;;;12.43;71.70;98187.59;5212307;28;20235;-55
2022/05/15 00:20:30;;;;;;;5.07;4.20;;;11.60;99.90;;;12.26;71.01;98186.66;5208195;28;20194;-57
2022/05/15 00:23:05;;;;;;;5.07;4.35;;;11.50;99.90;;;12.32;72.83;98186.09;5206047;28;20248;-57
2022/05/15 00:25:39;;;;;;;4.80;4.40;;;11.60;99.90;;;12.35;71.40;98186.28;5207423;28;20347;-54
2022/05/15 00:28:13;;;;;;;4.78;4.30;;;11.60;99.90;;;12.28;72.12;98186.75;5205904;28;20296;-56
2022/05/15 00:30:47;;;;;;;4.55;4.25;;;11.60;99.90;;;12.26;72.58;98188.34;5207010;28;20205;-57
2022/05/15 00:33:20;;;;;;;4.80;4.10;;;11.50;99.90;;;12.26;73.15;98191.78;5203613;28;20623;-56
2022/05/15 00:35:53;;;;;;;4.40;4.00;;;11.50;99.90;;;12.15;71.88;98196.28;5211787;28;20303;-55
2022/05/15 00:38:28;;;;;;;5.15;4.65;;;11.40;99.90;;;12.17;72.43;98192.13;5207939;28;20588;-57
2022/05/15 00:41:01;;;;;;;5.50;4.45;;;11.40;99.90;;;12.16;73.37;98181.78;5204519;28;20204;-57
2022/05/15 00:43:41;;;;;;;5.65;4.85;;;11.40;99.90;;;12.15;72.79;98186.03;5206205;28;20768;-56
2022/05/15 00:46:19;;;;;;;6.70;4.22;;;11.40;99.90;;;12.15;72.89;98187.72;5207488;28;20260;-54
2022/05/15 00:48:53;;;;;;;4.78;4.47;;;11.40;99.90;;;12.09;73.22;98185.69;5205724;28;21024;-55
2022/05/15 00:51:36;;;;;;;5.05;4.60;;;11.30;99.90;;;12.02;74.58;98188.72;5206477;28;20227;-58
2022/05/15 00:54:21;;;;;;;5.25;4.85;;;11.30;99.90;;;12.06;74.14;98182.97;5208896;28;20194;-56
2022/05/15 00:57:02;;;;;;;4.88;4.47;;;11.30;99.90;;;12.06;74.26;98188.09;5201387;28;20217;-52
2022/05/15 00:59:41;;;;;;;5.18;4.68;;;11.30;99.90;;;12.00;74.33;98182.63;5206208;28;20197;-54
2022/05/15 01:02:17;;;;;;;5.63;5.10;;;11.30;99.90;;;12.00;74.44;98184.31;5204623;28;20224;-50
2022/05/15 01:04:50;;;;;;;4.82;4.47;;;11.30;99.90;;;12.03;73.93;98185.34;5212599;28;20779;-55
2022/05/15 01:07:23;;;;;;;4.78;4.38;;;11.30;99.90;;;12.03;75.20;98181.91;5206406;28;20680;-51
2022/05/15 01:09:59;;;;;;;4.97;4.57;;;11.30;99.90;;;11.95;74.24;98177.22;5202106;28;20194;-54
2022/05/15 01:12:34;;;;;;;4.82;4.53;;;11.20;99.90;;;11.98;74.30;98180.78;5209377;28;20324;-53
2022/05/15 01:15:09;;;;;;;5.85;4.53;;;11.10;99.90;;;11.97;74.20;98172.22;5204869;28;20766;-55
2022/05/15 01:17:42;;;;;;;5.47;4.88;;;11.10;99.90;;;11.93;74.69;98177.94;5204872;28;20207;-56
2022/05/15 01:20:21;;;;;;;4.65;4.25;;;11.10;99.90;;;11.88;74.99;98172.56;5204593;28;20261;-50
2022/05/15 01:22:55;;;;;;;4.55;4.15;;;11.10;99.90;;;11.85;75.40;98169.84;5208616;28;20206;-52
2022/05/15 01:25:31;;;;;;;5.05;4.65;;;11.10;99.90;;;11.80;75.61;98170.34;5211511;28;20225;-50
2022/05/15 01:28:08;;;;;;;5.07;4.57;;;11.00;99.90;;;11.80;75.00;98175.47;5203298;28;20240;-50
2022/05/15 01:30:45;;;;;;;5.10;4.65;;;11.00;99.90;;;11.78;74.99;98182.16;5201894;28;20283;-55
2022/05/15 01:33:19;;;;;;;5.97;4.63;;;10.90;99.90;;;11.76;75.30;98169.28;5207537;28;20260;-50
2022/05/15 01:35:52;;;;;;;5.23;4.83;;;10.90;99.90;;;11.66;76.64;98170.41;5206149;28;20220;-55
2022/05/15 01:38:26;;;;;;;6.00;4.87;;;10.90;99.90;;;11.60;76.20;98170.06;5205464;28;20701;-50
2022/05/15 01:40:59;;;;;;;4.50;4.20;;;10.80;99.90;;;11.53;75.40;98179.84;5211649;28;20236;-55
2022/05/15 01:43:32;;;;;;;6.43;4.85;;;10.70;99.90;;;11.51;75.90;98166.97;5208261;28;20200;-53
2022/05/15 01:46:06;;;;;;;4.97;4.57;;;10.70;99.90;;;11.50;75.75;98175.44;5205120;28;20634;-55
2022/05/15 01:48:39;;;;;;;4.70;4.30;;;10.70;99.90;;;11.53;75.89;98167.94;5201235;28;20284;-55
2022/05/15 01:51:12;;;;;;;5.03;4.57;;;10.70;99.90;;;11.53;77.72;98174.72;5207546;28;20208;-54
2022/05/15 01:53:47;;;;;;;5.22;4.70;;;10.80;99.90;;;11.50;77.35;98176.34;5204658;28;20693;-53
2022/05/15 01:56:20;;;;;;;4.83;4.43;;;10.70;99.90;;;11.48;76.91;98174.47;5207184;28;20228;-55
2022/05/15 01:58:53;;;;;;;4.70;4.30;;;10.70;99.90;;;11.35;76.28;98170.31;5206495;28;20208;-53
2022/05/15 02:01:26;;;;;;;4.60;4.30;;;10.50;99.90;;;11.28;77.49;98173.31;5202585;28;20282;-56
2022/05/15 02:04:00;;;;;;;4.37;3.97;;;10.40;99.90;;;11.24;76.59;98167.09;5203272;28;20285;-55
2022/05/15 02:06:33;;;;;;;4.50;4.10;;;10.40;99.90;;;11.11;75.69;98164.63;5206407;28;20313;-54
2022/05/15 02:09:09;;;;;;;4.63;4.23;;;10.30;99.90;;;11.17;77.51;98175.22;5207200;28;20229;-56
2022/05/15 02:11:42;;;;;;;5.00;4.60;;;10.40;99.90;;;11.16;77.99;98165.78;5208251;28;20284;-54
2022/05/15 02:14:15;;;;;;;5.13;4.57;;;10.50;99.90;;;11.11;76.93;98173.97;5209001;28;20206;-57
2022/05/15 02:16:48;;;;;;;4.80;4.13;;;10.30;99.90;;;11.08;77.34;98168.69;5205209;28;20316;-54
2022/05/15 02:19:21;;;;;;;5.03;4.60;;;10.30;99.90;;;10.97;78.59;98165.47;5204275;28;20205;-56
2022/05/15 02:21:54;;;;;;;5.20;4.67;;;10.20;99.90;;;11.03;79.08;98166.72;5210181;28;20251;-55
2022/05/15 02:24:29;;;;;;;5.10;4.60;;;10.30;99.90;;;11.03;78.88;98161.59;5213632;28;20219;-53
2022/05/15 02:27:02;;;;;;;5.37;4.87;;;10.30;99.90;;;11.04;78.12;98157.34;5213350;28;20221;-53
2022/05/15 02:29:35;;;;;;;5.07;4.67;;;10.20;99.90;;;11.02;77.26;98153.84;5209918;28;20302;-55
2022/05/15 02:32:08;;;;;;;5.03;4.57;;;10.20;99.90;;;11.01;77.94;98162.28;5204539;28;20573;-57
2022/05/15 02:34:41;;;;;;;4.43;4.10;;;10.20;99.90;;;10.98;78.90;98167.22;5204566;28;20496;-54
2022/05/15 02:37:14;;;;;;;4.87;4.17;;;10.20;99.90;;;10.95;78.84;98165.38;5204567;28;20581;-56
2022/05/15 02:39:49;;;;;;;4.73;4.37;;;10.30;99.90;;;10.96;78.57;98159.47;5205200;28;20197;-53
2022/05/15 02:42:22;;;;;;;4.80;4.37;;;10.20;99.90;;;11.00;78.12;98163.09;5204733;28;20205;-52
2022/05/15 02:44:55;;;;;;;4.77;4.47;;;10.30;99.90;;;11.01;79.12;98157.19;5207869;28;20644;-57
2022/05/15 02:47:28;;;;;;;4.80;4.40;;;10.30;99.90;;;10.98;79.38;98155.31;5204316;28;20280;-56
2022/05/15 02:52:53;;;;;;;5.13;4.73;;;10.30;99.90;;;10.93;79.34;98168.63;5203594;28;20237;-54
2022/05/15 02:55:29;;;;;;;4.93;4.57;;;10.20;99.90;;;10.97;78.96;98168.03;5201542;28;20220;-55
2022/05/15 02:58:04;;;;;;;4.83;4.43;;;10.20;99.90;;;10.95;78.68;98169.59;5201703;28;20202;-56
2022/05/15 03:00:37;;;;;;;5.10;4.70;;;10.20;99.90;;;10.90;79.44;98159.13;5203673;28;20284;-55
2022/05/15 03:03:10;;;;;;;5.13;4.67;;;10.20;99.90;;;10.81;79.84;98163.66;5204160;28;20239;-56
2022/05/15 03:05:43;;;;;;;5.63;5.13;;;10.10;99.90;;;10.83;79.07;98162.94;5202354;28;20723;-57
2022/05/15 03:08:16;;;;;;;4.73;4.43;;;10.10;99.90;;;10.90;78.76;98163.31;5200685;28;20229;-58
2022/05/15 03:10:51;;;;;;;5.03;4.63;;;10.00;99.90;;;10.85;79.51;98159.63;5207639;28;20200;-55
2022/05/15 03:13:24;;;;;;;5.40;5.00;;;10.10;99.90;;;10.79;79.75;98158.47;5202804;28;20204;-52
2022/05/15 03:15:58;;;;;;;5.40;5.00;;;10.10;99.90;;;10.81;79.64;98161.09;5203996;28;20564;-54
2022/05/15 03:18:31;;;;;;;5.23;4.73;;;10.10;99.90;;;10.81;79.78;98159.41;5203527;28;20245;-57
2022/05/15 03:21:04;;;;;;;5.40;4.97;;;10.10;99.90;;;10.80;78.75;98165.31;5205107;28;20228;-57
2022/05/15 03:23:37;;;;;;;5.73;5.23;;;10.00;99.90;;;10.75;79.24;98159.03;5203657;28;20202;-57
2022/05/15 03:26:12;;;;;;;5.13;4.70;;;9.90;99.90;;;10.72;79.89;98153.75;5205601;28;20317;-55
2022/05/15 03:28:45;;;;;;;5.60;5.10;;;9.90;99.90;;;10.67;79.46;98161.91;5201853;28;22331;-58
2022/05/15 03:31:19;;;;;;;5.87;5.23;;;10.00;99.90;;;10.56;80.35;98156.19;5207462;28;20194;-58
2022/05/15 03:33:52;;;;;;;5.73;5.23;;;9.80;99.90;;;10.57;80.75;98152.81;5204305;28;20197;-57
2022/05/15 03:36:26;;;;;;;5.60;5.10;;;9.80;99.90;;;10.58;80.94;98149.47;5201955;28;20218;-57
2022/05/15 03:38:59;;;;;;;5.47;5.03;;;9.80;99.90;;;10.59;82.38;98152.13;5203977;28;20195;-56
2022/05/15 03:41:34;;;;;;;5.67;5.17;;;9.90;99.90;;;10.64;81.87;98157.50;5207057;28;20205;-56
2022/05/15 03:44:07;;;;;;;5.00;4.53;;;9.90;99.90;;;10.67;82.11;98155.13;5204900;28;20605;-59
2022/05/15 03:46:42;;;;;;;5.67;5.27;;;10.00;99.90;;;10.72;81.18;98158.84;5205950;28;20229;-60
2022/05/15 03:49:15;;;;;;;5.03;4.63;;;10.00;99.90;;;10.73;81.52;98155.53;5204046;28;20296;-59
2022/05/15 03:51:48;;;;;;;5.27;4.80;;;10.10;99.90;;;10.72;80.84;98165.66;5206067;28;20198;-60
2022/05/15 03:54:21;;;;;;;5.53;5.00;;;10.10;99.90;;;10.77;81.34;98171.94;5204929;28;20301;-59
2022/05/15 03:56:56;;;;;;;5.13;4.63;;;10.10;99.90;;;10.77;79.75;98175.38;5205263;28;20220;-60
2022/05/15 03:59:32;;;;;;;4.83;4.30;;;10.10;99.90;;;10.74;81.66;98169.19;5201294;28;20197;-56
2022/05/15 04:02:08;;;;;;;5.17;4.67;;;10.00;99.90;;;10.70;79.67;98175.81;5205091;28;20562;-56
2022/05/15 04:04:41;;;;;;;5.50;5.00;;;9.90;99.90;;;10.66;79.48;98175.50;5201530;28;20208;-57
2022/05/15 04:07:18;;;;;;;5.30;4.87;;;9.90;99.90;;;10.56;80.46;98166.41;5206969;28;20218;-57
2022/05/15 04:09:51;;;;;;;5.57;5.07;;;9.80;99.90;;;10.59;81.11;98169.13;5211278;28;20696;-57
2022/05/15 04:12:25;;;;;;;5.43;4.77;;;9.90;99.90;;;10.57;80.69;98168.16;5203911;28;20327;-58
2022/05/15 04:14:58;;;;;;;5.53;5.03;;;9.90;99.90;;;10.55;81.53;98165.47;5204034;28;20217;-57
2022/05/15 04:17:31;;;;;;;4.90;4.53;;;9.90;99.90;;;10.56;82.49;98167.28;5204053;28;20232;-56
2022/05/15 04:20:06;;;;;;;5.10;4.80;;;9.90;99.90;;;10.59;80.64;98166.59;5203847;28;20293;-56
2022/05/15 04:22:39;;;;;;;5.20;4.70;;;9.80;99.90;;;10.59;81.59;98174.25;5204143;28;20203;-56
2022/05/15 04:25:13;;;;;;;5.03;4.63;;;9.80;99.90;;;10.59;82.55;98169.13;5199920;28;20221;-56
2022/05/15 04:27:48;;;;;;;5.23;4.90;;;9.90;99.90;;;10.64;80.38;98170.28;5201507;28;20206;-56
2022/05/15 04:30:26;;;;;;;5.40;4.90;;;9.90;99.90;;;10.72;81.08;98181.88;5200047;28;20194;-54
2022/05/15 04:32:59;;;;;;;5.40;5.03;;;10.00;99.90;;;10.70;80.87;98175.81;5203516;28;20285;-53
2022/05/15 04:35:34;;;;;;;5.20;4.70;;;10.00;99.90;;;10.74;80.28;98177.75;5202067;28;20250;-58
2022/05/15 04:38:09;;;;;;;5.37;4.97;;;10.00;99.90;;;10.68;82.07;98172.25;5197439;28;20732;-56
2022/05/15 04:40:54;;;;;;;5.20;4.80;;;10.10;99.90;;;10.73;81.17;98176.00;5199661;28;20204;-58
2022/05/15 04:43:29;;;;;;;4.63;4.23;;;10.00;99.90;;;10.78;82.21;98173.69;5203786;28;20201;-57
2022/05/15 04:46:07;;;;;;;4.97;4.57;;;10.10;99.90;;;10.96;81.37;98179.03;5201637;28;20228;-55
2022/05/15 04:48:41;;;;;;;5.00;4.60;;;10.20;99.90;;;11.02;81.04;98179.44;5198437;28;20296;-58
2022/05/15 04:51:14;;;;;;;5.40;4.90;;;10.40;99.90;;;11.09;80.68;98183.22;5200666;28;21453;-56
2022/05/15 04:53:47;;;;;;;5.07;4.67;;;10.50;99.90;;;11.25;79.27;98176.56;5203798;28;20618;-56
2022/05/15 04:56:21;;;;;;;5.20;4.90;;;10.50;99.90;;;11.17;80.43;98185.47;5206400;28;20252;-57
2022/05/15 04:58:55;;;;;;;5.60;5.20;;;10.50;99.90;;;11.30;78.70;98183.63;5206871;28;20216;-57
2022/05/15 05:01:28;;;;;;;5.27;4.83;;;10.60;99.90;;;11.42;78.54;98184.38;5208505;28;20204;-56
2022/05/15 05:04:01;;;;;;;5.03;4.53;;;10.60;99.90;;;11.49;78.36;98184.78;5209670;28;20198;-53
2022/05/15 05:06:35;;;;;;;4.90;4.50;;;10.60;99.90;;;11.65;78.20;98173.78;5211796;28;20315;-56
2022/05/15 05:09:08;;;;;;;5.53;4.60;;;10.80;99.90;;;11.79;77.78;98177.16;5199352;28;20236;-56
2022/05/15 05:11:41;;;;;;;5.23;4.83;;;10.90;99.90;;;11.91;76.74;98174.44;5202260;28;20256;-57
2022/05/15 05:14:16;;;;;;;5.07;4.57;;;11.00;99.90;;;12.16;76.33;98181.78;5207980;28;20297;-56
2022/05/15 05:16:49;;;;;;;4.78;4.38;;;11.20;99.90;;;12.81;75.37;98186.19;5211029;28;20693;-56
2022/05/15 05:19:22;;;;;;;5.38;4.88;;;11.90;99.90;;;13.58;72.99;98185.09;5207180;28;20290;-57
2022/05/15 05:21:55;;;;;;;4.70;4.20;;;12.60;99.90;;;14.19;69.79;98172.66;5201170;28;20292;-57
2022/05/15 05:24:28;;;;;;;4.40;4.10;;;13.20;99.90;;;14.91;66.47;98183.81;5209997;28;20292;-56
2022/05/15 05:27:01;;;;;;;6.22;4.22;;;13.80;99.90;;;15.49;64.05;98180.31;5202607;28;20232;-57
2022/05/15 05:29:36;;;;;;;4.57;4.25;;;14.30;99.90;;;16.09;61.80;98181.16;5208899;28;20305;-58
2022/05/15 05:32:10;;;;;;;4.72;4.32;;;14.90;99.90;;;16.46;60.55;98176.59;5205937;28;20297;-57
2022/05/15 05:34:43;;;;;;;4.30;3.95;;;15.20;99.90;;;16.85;59.56;98172.97;5213129;28;20211;-57
2022/05/15 05:37:17;;;;;;;4.80;4.45;;;15.40;99.90;;;17.17;57.36;98169.78;5204288;28;20194;-57
2022/05/15 05:39:50;;;;;;;4.82;4.32;;;15.60;99.90;;;17.46;57.04;98174.31;5202292;28;20202;-57
2022/05/15 05:42:23;;;;;;;4.68;4.22;;;15.80;99.90;;;17.69;55.58;98179.41;5212892;28;20276;-54
2022/05/15 05:44:58;;;;;;;4.72;4.32;;;16.00;99.90;;;17.78;56.06;98171.97;5204861;28;20241;-54
2022/05/15 05:47:31;;;;;;;4.38;3.97;;;16.10;99.90;;;18.04;54.62;98175.41;5207513;28;20209;-55
2022/05/15 05:50:08;;;;;;;5.05;4.57;;;16.20;99.90;;;18.38;54.06;98177.38;5204003;28;20280;-55
2022/05/15 05:52:42;;;;;;;4.78;4.47;;;16.40;99.70;;;18.68;53.29;98179.13;5200321;28;20197;-55
2022/05/15 05:55:17;;;;;;;5.45;4.30;;;16.70;99.10;;;19.01;52.19;98181.03;5201289;28;20228;-56
2022/05/15 05:57:51;;;;;;;4.30;3.92;;;17.00;98.60;;;19.20;51.74;98188.50;5206395;28;20280;-58
2022/05/15 06:00:29;;;;;;;4.82;4.47;;;17.10;98.20;;;19.23;50.98;98188.59;5201317;28;20202;-57
2022/05/15 06:05:53;;;;;;;4.40;4.00;;;17.10;98.30;;;19.87;49.71;98191.19;5178967;28;20220;-60
2022/05/15 06:08:28;;;;;;;4.93;4.50;;;17.40;97.80;;;20.15;49.24;98182.38;5204364;28;20344;-61
2022/05/15 06:11:01;;;;;;;5.30;4.80;;;17.90;97.30;;;20.10;49.61;98177.06;5205495;28;20206;-60
2022/05/15 06:13:34;;;;;;;4.55;4.15;;;18.00;97.00;;;20.13;49.08;98171.94;5202002;28;20202;-61
2022/05/15 06:16:09;;;;;;;5.25;3.80;;;18.10;96.80;;;20.90;48.50;98178.91;5205831;28;20225;-61
2022/05/15 06:18:43;;;;;;;4.15;3.72;;;18.40;96.90;;;21.13;47.17;98172.47;5200694;28;20206;-61
2022/05/15 06:21:16;;;;;;;4.65;4.25;;;18.80;96.10;;;21.32;47.27;98175.44;5205460;28;20638;-61
2022/05/15 06:23:49;;;;;;;4.90;3.97;;;18.90;95.90;;;21.75;46.05;98165.88;5202739;28;20202;-63
2022/05/15 06:26:22;;;;;;;4.32;4.03;;;19.20;95.30;;;22.21;44.25;98169.28;5206209;28;20739;-62
2022/05/15 06:28:55;;;;;;;4.13;3.72;;;19.40;94.20;;;22.41;44.38;98167.00;5200022;28;20241;-62
2022/05/15 06:31:29;;;;;;;5.25;3.83;;;19.70;94.20;;;22.83;43.36;98166.69;5202790;28;20422;-58
2022/05/15 06:34:02;;;;;;;4.40;4.00;;;20.20;93.60;;;22.81;43.24;98159.75;5211082;28;20197;-59
2022/05/15 06:36:36;;;;;;;4.75;4.13;;;20.60;92.60;;;22.59;44.13;98155.94;5206549;28;20220;-62
2022/05/15 06:39:09;;;;;;;4.00;3.70;;;20.50;92.90;;;23.17;42.50;98156.72;5199560;28;20297;-60
2022/05/15 06:41:42;;;;;;;4.78;4.38;;;20.80;92.20;;;22.83;43.03;98164.09;5207661;28;20293;-62
2022/05/15 06:44:15;;;;;;;4.00;3.60;;;20.90;91.90;;;23.48;42.60;98157.09;5202016;28;20677;-61
2022/05/15 06:46:49;;;;;;;5.13;3.90;;;21.20;91.70;;;23.28;42.62;98169.91;5201839;28;20222;-60
2022/05/15 06:49:23;;;;;;;4.55;3.83;;;21.30;91.60;;;23.78;41.94;98157.44;5208233;28;20237;-57
2022/05/15 06:51:56;;;;;;;3.70;3.50;;;21.50;91.50;;;24.42;40.95;98156.19;5204094;28;20807;-57
2022/05/15 06:54:29;;;;;;;4.20;3.80;;;22.20;90.50;;;24.29;40.59;98155.22;5208863;28;20196;-57
2022/05/15 06:59:53;;;;;;;3.88;3.58;;;22.50;90.30;;;24.96;40.70;98157.41;5202517;28;20658;-59
2022/05/15 07:02:29;;;;;;;3.92;3.63;;;22.60;90.30;;;25.30;39.74;98162.81;5209157;28;20836;-59
2022/05/15 07:05:04;;;;;;;4.25;3.72;;;23.10;89.50;;;25.33;39.67;98161.06;5207894;28;20248;-59
2022/05/15 07:07:38;;;;;;;3.70;3.40;;;23.10;89.30;;;25.66;39.06;98163.75;5206717;28;20793;-56
2022/05/15 07:10:11;;;;;;;4.05;3.50;;;23.30;88.60;;;25.79;38.33;98162.94;5205416;28;20360;-55
2022/05/15 07:12:45;;;;;;;4.07;3.60;;;23.50;87.30;;;25.89;38.89;98151.59;5201289;28;20208;-56
2022/05/15 07:15:18;;;;;;;5.13;3.30;;;23.70;87.20;;;26.17;37.92;98156.84;5204102;28;20252;-57
2022/05/15 07:17:53;;;;;;;3.67;3.00;;;24.10;84.80;;;26.37;36.26;98151.59;5205048;28;20289;-56
2022/05/15 07:20:26;;;;;;;3.85;3.35;;;24.10;83.20;;;26.37;36.91;98159.47;5203476;28;20232;-55
2022/05/15 07:22:59;;;;;;;3.45;3.13;;;24.10;84.00;;;26.42;36.74;98150.72;5206215;28;20204;-60
2022/05/15 07:25:32;;;;;;;3.50;3.20;;;24.20;83.80;;;26.74;36.42;98152.44;5210152;28;20217;-55
2022/05/15 07:28:06;;;;;;;3.85;3.13;;;24.30;83.20;;;26.88;36.21;98153.25;5203497;28;20223;-53
2022/05/15 07:30:39;;;;;;;3.15;2.80;;;24.60;82.40;;;27.21;34.69;98154.03;5204742;28;20201;-58
2022/05/15 07:33:13;;;;;;;4.22;3.30;;;24.70;80.50;;;27.69;34.99;98151.16;5201194;28;20201;-55
2022/05/15 07:35:46;;;;;;;4.13;3.03;;;25.00;81.40;;;27.80;34.73;98142.34;5204447;28;20220;-57
2022/05/15 07:38:19;;;;;;;3.17;2.80;;;25.10;81.60;;;27.95;34.99;98143.09;5205051;28;20194;-56
2022/05/15 07:40:53;;;;;;;3.90;3.10;;;25.50;80.70;;;28.14;34.52;98149.09;5201122;28;20636;-59
2022/05/15 07:43:26;;;;;;;3.65;3.22;;;25.80;79.70;;;28.59;33.81;98139.94;5198451;28;20201;-59
2022/05/15 07:45:59;;;;;;;4.95;3.13;;;25.80;79.50;;;28.26;33.79;98143.72;5199341;28;20239;-60
2022/05/15 07:48:33;;;;;;;4.18;2.80;;;25.60;80.10;;;28.18;33.97;98137.66;5201970;28;20593;-59
2022/05/15 07:51:06;;;;;;;3.40;2.70;;;25.30;79.60;;;28.43;34.28;98133.94;5201758;28;20207;-60
2022/05/15 07:53:40;;;;;;;4.07;3.05;;;25.40;81.20;;;28.61;33.81;98124.97;5197108;28;20197;-60
2022/05/15 07:56:13;;;;;;;5.00;2.95;;;25.50;80.80;;;28.86;33.05;98127.34;5197793;28;20232;-57
2022/05/15 07:58:47;;;;;;;4.00;2.38;;;26.00;78.10;;;28.85;32.86;98123.84;5201924;28;20714;-57
2022/05/15 08:01:20;;;;;;;3.20;2.45;;;26.10;77.70;;;28.51;31.37;98123.34;5201696;28;20205;-60
2022/05/15 08:03:55;;;;;;;3.38;2.33;;;26.10;74.60;;;28.44;32.00;98124.28;5201359;28;20197;-58
2022/05/15 08:09:18;;;;;;;2.92;2.10;;;26.30;75.70;;;27.71;33.24;98129.25;5201794;28;20582;-58
2022/05/15 08:11:51;;;;;;;4.97;2.67;;;26.20;73.90;;;27.81;33.91;98136.22;5199215;28;20204;-58
2022/05/15 08:14:24;;;;;;;4.22;2.33;;;26.30;74.60;;;27.66;32.80;98117.88;5200581;28;20219;-61
2022/05/15 08:16:58;;;;;;;3.72;1.95;;;26.30;73.90;;;27.72;32.66;98125.72;5205401;28;20213;-58
2022/05/15 08:25:15;;;;;;;2.67;2.10;;;26.90;70.60;;;27.89;31.94;98124.75;5194837;28;20217;-59
2022/05/15 08:27:48;;;;;;;2.50;2.30;;;26.70;70.20;;;28.05;31.65;98124.63;5199471;28;20217;-57
2022/05/15 08:30:22;;;;;;;3.88;2.00;;;27.00;69.10;;;28.03;31.27;98120.25;5197132;28;20204;-59
2022/05/15 08:32:55;;;;;;;3.13;2.67;;;27.00;69.10;;;27.63;34.21;98118.78;5197866;28;20208;-59
2022/05/15 08:35:30;;;;;;;3.17;2.28;;;26.80;73.00;;;27.78;32.30;98123.03;5208749;28;20531;-54
2022/05/15 08:38:04;;;;;;;3.33;2.67;;;26.80;70.10;;;27.78;32.44;98116.91;5214616;28;20194;-56
2022/05/15 08:40:48;;;;;;;2.95;2.30;;;26.70;70.90;;;28.17;32.59;98121.00;5206466;28;20412;-58
2022/05/15 08:43:42;;;;;;;3.13;2.20;;;27.20;70.70;;;28.32;32.61;98113.88;5202652;28;20213;-56
2022/05/15 08:46:32;;;;;;;4.32;2.13;;;27.40;71.10;;;28.36;31.51;98119.09;5205185;28;20220;-55
2022/05/15 08:49:13;;;;;;;2.65;1.90;;;27.30;69.70;;;28.36;31.77;98113.84;5217616;28;20774;-55
2022/05/15 08:51:58;;;;;;;3.40;2.17;;;27.40;69.10;;;28.12;31.89;98121.94;5210026;28;20231;-58
2022/05/15 08:54:32;;;;;;;2.78;2.20;;;27.30;69.30;;;27.71;32.11;98113.47;5207222;28;20583;-59
2022/05/15 08:57:08;;;;;;;2.38;1.92;;;27.10;68.80;;;28.11;32.58;98115.81;5204316;28;20606;-57
2022/05/15 08:59:54;;;;;;;3.65;2.38;;;27.30;70.70;;;28.24;30.58;98114.84;5204504;28;20232;-56
2022/05/15 09:02:27;;;;;;;2.85;1.77;;;27.30;66.90;;;28.17;31.37;98123.66;5213334;28;20223;-57
2022/05/15 09:05:00;;;;;;;2.85;2.00;;;27.20;68.50;;;28.20;31.54;98117.50;5210909;28;20263;-56
2022/05/15 09:07:51;;;;;;;3.50;2.17;;;27.40;67.30;;;28.20;30.26;98115.72;5204572;28;20202;-59
2022/05/15 09:10:35;;;;;;;3.10;2.20;;;27.30;66.20;;;28.18;30.77;98109.59;5208800;28;20433;-57
2022/05/15 09:13:12;;;;;;;2.63;1.90;;;27.30;67.20;;;28.34;30.38;98112.09;5207012;28;20208;-57
2022/05/15 09:15:58;;;;;;;2.25;1.80;;;27.40;66.40;;;28.35;31.37;98105.94;5205818;28;20224;-57
2022/05/15 09:18:37;;;;;;;2.95;2.10;;;27.50;67.00;;;28.17;29.84;98109.63;5204087;28;20190;-57
2022/05/15 09:21:14;;;;;;;1.98;1.80;;;27.30;63.00;;;28.10;29.21;98107.94;5207879;28;20209;-56
2022/05/15 09:23:52;;;;;;;2.33;1.83;;;27.30;63.30;;;27.76;29.12;98114.31;5203034;28;20201;-57
2022/05/15 09:26:32;;;;;;;17.25;15.50;;;27.10;62.80;;;27.65;29.53;98103.03;5210505;28;20775;-58
2022/05/15 09:29:16;;;;;;;3.85;3.22;;;26.90;63.00;;;27.63;29.50;98104.78;5210358;28;20243;-57
2022/05/15 09:31:50;;;;;;;11.52;10.43;;;26.80;63.10;;;27.79;29.68;98109.06;5203951;28;20189;-54
2022/05/15 09:34:28;;;;;;;23.45;21.30;;;27.00;64.90;;;27.89;29.99;98109.00;5210369;28;20292;-60
2022/05/15 09:40:04;;;;;;;5.93;5.32;;;27.00;64.00;;;27.85;30.35;98113.41;5200767;28;20672;-59
2022/05/15 09:45:54;;;;;;;2.70;2.10;;;27.10;62.70;;;27.58;29.12;98110.06;5140414;28;20484;-59
2022/05/15 09:48:37;;;;;;;3.67;2.15;;;26.70;61.90;;;27.25;29.52;98108.53;5203157;28;20221;-59
2022/05/15 09:51:13;;;;;;;2.90;2.10;;;26.50;62.40;;;27.28;29.86;98105.88;5198806;28;20301;-57
2022/05/15 09:53:52;;;;;;;2.42;2.10;;;26.40;63.50;;;27.43;29.84;98109.28;5205437;28;20713;-58
2022/05/15 09:56:31;;;;;;;4.82;2.22;;;26.70;63.60;;;27.45;30.84;98102.28;5205521;28;20227;-57
2022/05/15 09:59:12;;;;;;;3.40;2.08;;;26.70;64.80;;;27.51;29.17;98091.75;5206926;28;20659;-60
2022/05/15 10:01:59;;;;;;;2.75;2.38;;;26.70;62.30;;;27.51;30.28;98086.50;5201605;28;20611;-59
2022/05/15 10:04:39;;;;;;;2.92;2.15;;;26.80;63.60;;;27.64;29.80;98082.88;5199294;28;20292;-62
2022/05/15 10:07:30;;;;;;;5.38;2.80;;;26.80;63.60;;;27.67;30.41;98088.13;5206329;28;20756;-60
2022/05/15 10:10:18;;;;;;;6.40;5.55;;;27.00;64.20;;;27.72;29.86;98083.69;5202531;28;20205;-60
2022/05/15 10:13:00;;;;;;;10.85;9.73;;;26.90;63.50;;;27.57;30.62;98089.06;5203929;28;20284;-60
2022/05/15 10:15:46;;;;;;;12.25;11.02;;;26.80;64.40;;;27.37;31.69;98084.81;5205121;28;20769;-60
2022/05/15 10:18:26;;;;;;;14.95;13.35;;;26.70;65.40;;;27.07;31.90;98077.06;5203248;28;20671;-58
2022/05/15 10:21:03;;;;;;;3.95;3.28;;;26.60;65.20;;;27.13;31.23;98077.06;5205097;28;20209;-61
2022/05/15 10:23:46;;;;;;;3.58;2.15;;;26.40;65.20;;;27.32;31.65;98072.59;5204519;28;20491;-60
2022/05/15 10:26:28;;;;;;;2.28;2.08;;;26.60;65.10;;;27.46;31.35;98067.25;5204631;28;20604;-61
2022/05/15 10:29:14;;;;;;;3.65;2.25;;;26.70;65.80;;;27.65;30.54;98065.38;5203342;28;20225;-61
2022/05/15 10:31:53;;;;;;;2.33;2.13;;;26.90;63.90;;;27.37;30.68;98063.81;5209578;28;20657;-60
2022/05/15 10:34:29;;;;;;;2.78;2.22;;;26.60;65.10;;;27.28;31.48;98063.88;5201124;28;20211;-61
2022/05/15 10:37:22;;;;;;;2.78;2.20;;;26.50;65.20;;;27.02;32.42;98064.00;5203459;28;20220;-57
2022/05/15 10:40:15;;;;;;;3.20;2.05;;;26.30;66.80;;;27.07;31.14;98063.94;5195915;28;20329;-59
2022/05/15 10:43:08;;;;;;;2.47;2.13;;;26.30;64.60;;;27.18;31.81;98057.81;5199384;28;21522;-61
2022/05/15 10:45:51;;;;;;;2.15;1.98;;;26.40;66.00;;;27.17;32.12;98045.56;5197608;28;20229;-60
2022/05/15 10:48:46;;;;;;;2.25;2.00;;;26.40;67.30;;;27.12;33.01;98057.81;5203799;28;20282;-59
2022/05/15 10:51:24;;;;;;;2.22;2.03;;;26.40;67.40;;;27.02;31.32;98055.25;5203923;28;20215;-62
2022/05/15 10:57:41;;;;;;;2.72;2.10;;;26.20;65.30;;;27.12;31.71;98033.31;5214002;28;20253;-57
2022/05/15 11:00:21;;;;;;;3.20;2.10;;;26.40;65.50;;;27.04;31.69;98041.25;5202125;28;20232;-61
2022/05/15 11:03:27;;;;;;;3.13;2.17;;;26.30;65.30;;;26.87;32.33;98030.84;5196493;28;20190;-62
2022/05/15 11:06:32;;;;;;;2.65;2.05;;;26.20;65.90;;;27.09;31.42;98033.34;5197676;28;20247;-61
2022/05/15 11:09:11;;;;;;;3.00;2.17;;;26.40;67.30;;;26.80;31.43;98025.63;5202930;28;20813;-60
2022/05/15 11:12:22;;;;;;;3.72;2.13;;;26.20;64.70;;;26.84;31.59;98022.09;5200175;28;20198;-61
2022/05/15 11:15:12;;;;;;;3.17;2.33;;;26.30;65.30;;;26.96;32.12;98017.66;5204847;28;20197;-61
2022/05/15 11:17:58;;;;;;;2.83;2.38;;;26.30;66.10;;;26.83;31.00;98018.59;5203000;28;20194;-61
2022/05/15 11:20:40;;;;;;;2.35;1.92;;;26.20;63.90;;;27.02;31.37;98014.13;5201763;28;20197;-61
2022/05/15 11:23:17;;;;;;;4.53;2.22;;;26.20;64.90;;;26.97;31.40;98010.66;5213928;28;20232;-61
2022/05/15 11:25:55;;;;;;;2.15;1.95;;;26.10;65.30;;;26.99;32.14;98008.03;5213739;28;20609;-61